createdAt,value
2023-04-10T00:02:22.868Z,38.47
2023-04-10T00:05:11.913Z,38.16
2023-04-10T00:08:03.329Z,37.92
2023-04-10T00:10:53.296Z,37.93
2023-04-10T00:13:41.968Z,38.21
2023-04-10T00:16:30.659Z,38.57
2023-04-10T00:19:19.603Z,38.46
2023-04-10T00:22:08.356Z,38.46
2023-04-10T00:24:58.510Z,38.38
2023-04-10T00:27:47.255Z,38.35
2023-04-10T00:30:35.935Z,38.65
2023-04-10T00:33:24.651Z,38.47
2023-04-10T00:36:13.397Z,38.29
2023-04-10T00:39:02.122Z,38.54
2023-04-10T00:41:52.148Z,38.22
2023-04-10T00:44:41.485Z,38.67
2023-04-10T00:47:30.839Z,38.19
2023-04-10T00:50:19.830Z,38.46
2023-04-10T00:53:08.559Z,38.81
2023-04-10T00:55:58.173Z,38.48
2023-04-10T00:58:48.306Z,38.75
2023-04-10T01:01:36.938Z,39.18
2023-04-10T01:04:28.828Z,38.68
2023-04-10T01:07:23.648Z,38.89
2023-04-10T01:10:17.167Z,38.84
2023-04-10T01:13:17.324Z,38.92
2023-04-10T01:16:11.310Z,38.82
2023-04-10T01:19:06.031Z,38.74
2023-04-10T01:21:56.739Z,38.58
2023-04-10T01:24:55.488Z,38.73
2023-04-10T01:27:51.594Z,38.89
2023-04-10T01:30:42.149Z,38.89
2023-04-10T01:33:41.300Z,39.13
2023-04-10T01:36:35.636Z,38.73
2023-04-10T01:39:25.741Z,39.14
2023-04-10T01:42:16.279Z,39.12
2023-04-10T01:45:05.845Z,39.07
2023-04-10T01:47:56.100Z,39.03
2023-04-10T01:50:45.418Z,39.23
2023-04-10T01:53:34.271Z,39.27
2023-04-10T01:56:22.974Z,38.96
2023-04-10T01:59:11.602Z,39.33
2023-04-10T02:02:00.868Z,39.57
2023-04-10T02:04:51.782Z,39.34
2023-04-10T02:07:46.492Z,39.61
2023-04-10T02:10:42.822Z,39.61
2023-04-10T02:13:32.169Z,39.45
2023-04-10T02:16:21.799Z,39.39
2023-04-10T02:19:11.906Z,39.13
2023-04-10T02:22:01.903Z,39.49
2023-04-10T02:24:51.008Z,39.45
2023-04-10T02:27:40.265Z,39.12
2023-04-10T02:30:29.367Z,39.14
2023-04-10T02:33:17.977Z,39.05
2023-04-10T02:36:07.394Z,39.45
2023-04-10T02:38:57.403Z,39.10
2023-04-10T02:41:46.464Z,39.45
2023-04-10T02:44:35.748Z,39.40
2023-04-10T02:47:24.469Z,39.14
2023-04-10T02:50:13.182Z,39.56
2023-04-10T02:53:01.760Z,39.42
2023-04-10T02:55:51.707Z,39.00
2023-04-10T02:58:45.402Z,39.11
2023-04-10T03:01:34.288Z,39.61
2023-04-10T03:04:22.986Z,39.61
2023-04-10T03:07:11.583Z,39.49
2023-04-10T03:10:01.457Z,39.75
2023-04-10T03:12:51.373Z,39.48
2023-04-10T03:15:40.119Z,39.42
2023-04-10T03:18:28.738Z,40.03
2023-04-10T03:21:17.721Z,39.96
2023-04-10T03:24:07.117Z,39.65
2023-04-10T03:26:56.882Z,39.59
2023-04-10T03:29:46.842Z,39.28
2023-04-10T03:32:35.382Z,39.23
2023-04-10T03:35:24.234Z,39.65
2023-04-10T03:38:12.839Z,39.56
2023-04-10T03:41:01.494Z,39.31
2023-04-10T03:43:50.039Z,39.24
2023-04-10T03:46:40.411Z,39.65
2023-04-10T03:49:29.052Z,39.70
2023-04-10T03:52:17.654Z,39.49
2023-04-10T03:55:06.923Z,39.80
2023-04-10T03:57:55.477Z,39.43
2023-04-10T04:00:44.107Z,39.56
2023-04-10T04:03:34.397Z,39.41
2023-04-10T04:06:23.061Z,39.61
2023-04-10T04:09:11.696Z,39.62
2023-04-10T04:12:00.279Z,39.84
2023-04-10T04:14:48.849Z,39.31
2023-04-10T04:17:37.603Z,39.77
2023-04-10T04:20:27.693Z,39.56
2023-04-10T04:23:17.596Z,39.58
2023-04-10T04:26:06.952Z,39.78
2023-04-10T04:28:55.530Z,39.50
2023-04-10T04:31:44.252Z,39.54
2023-04-10T04:34:32.845Z,39.43
2023-04-10T04:37:22.728Z,39.56
2023-04-10T04:40:12.394Z,39.93
2023-04-10T04:43:00.997Z,39.80
2023-04-10T04:45:49.655Z,40.28
2023-04-10T04:48:38.444Z,39.84
2023-04-10T04:51:27.139Z,40.10
2023-04-10T04:54:17.082Z,40.23
2023-04-10T04:57:05.683Z,39.78
2023-04-10T04:59:54.360Z,39.91
2023-04-10T05:02:43.120Z,40.13
2023-04-10T05:05:31.854Z,40.20
2023-04-10T05:08:20.623Z,40.24
2023-04-10T05:11:10.893Z,40.10
2023-04-10T05:13:59.831Z,40.11
2023-04-10T05:16:48.865Z,40.25
2023-04-10T05:19:37.646Z,39.96
2023-04-10T05:22:27.856Z,39.81
2023-04-10T05:25:16.952Z,40.19
2023-04-10T05:28:06.918Z,40.57
2023-04-10T05:30:55.668Z,40.27
2023-04-10T05:33:44.309Z,40.31
2023-04-10T05:36:32.925Z,40.09
2023-04-10T05:39:21.511Z,40.55
2023-04-10T05:42:10.102Z,40.54
2023-04-10T05:45:00.044Z,40.20
2023-04-10T05:47:48.687Z,40.57
2023-04-10T05:50:37.510Z,40.57
2023-04-10T05:53:31.160Z,40.56
2023-04-10T05:56:19.998Z,40.32
2023-04-10T05:59:08.599Z,40.49
2023-04-10T06:01:59.197Z,40.62
2023-04-10T06:04:48.053Z,40.64
2023-04-10T06:07:36.752Z,40.44
2023-04-10T06:10:25.402Z,40.76
2023-04-10T06:13:14.954Z,40.30
2023-04-10T06:16:03.596Z,40.98
2023-04-10T06:18:54.354Z,41.13
2023-04-10T06:21:43.184Z,40.68
2023-04-10T06:24:32.102Z,40.85
2023-04-10T06:27:20.723Z,40.64
2023-04-10T06:30:10.932Z,40.38
2023-04-10T06:32:59.591Z,40.29
2023-04-10T06:35:50.821Z,40.39
2023-04-10T06:38:39.555Z,40.55
2023-04-10T06:41:28.213Z,40.70
2023-04-10T06:44:16.922Z,40.16
2023-04-10T06:47:06.856Z,40.55
2023-04-10T06:49:55.785Z,40.31
2023-04-10T06:52:45.817Z,40.30
2023-04-10T06:55:34.418Z,40.12
2023-04-10T06:58:24.352Z,40.05
2023-04-10T07:01:13.005Z,40.22
2023-04-10T07:04:02.130Z,40.33
2023-04-10T07:06:50.947Z,40.21
2023-04-10T07:09:41.203Z,40.01
2023-04-10T07:12:29.834Z,39.93
2023-04-10T07:15:18.549Z,39.79
2023-04-10T07:18:07.295Z,39.72
2023-04-10T07:20:56.038Z,40.16
2023-04-10T07:23:44.680Z,40.00
2023-04-10T07:26:34.708Z,39.76
2023-04-10T07:29:23.296Z,40.28
2023-04-10T07:32:12.038Z,40.14
2023-04-10T07:35:00.639Z,40.21
2023-04-10T07:37:51.924Z,39.93
2023-04-10T07:40:40.688Z,39.85
2023-04-10T07:43:30.665Z,40.51
2023-04-10T07:46:19.772Z,40.24
2023-04-10T07:49:09.017Z,39.99
2023-04-10T07:51:57.898Z,40.38
2023-04-10T07:54:48.070Z,40.19
2023-04-10T07:57:37.701Z,40.11
2023-04-10T08:00:27.707Z,40.47
2023-04-10T08:03:17.077Z,39.83
2023-04-10T08:06:09.758Z,40.05
2023-04-10T08:08:58.827Z,39.82
2023-04-10T08:11:47.929Z,40.14
2023-04-10T08:14:39.288Z,39.71
2023-04-10T08:17:29.324Z,39.73
2023-04-10T08:20:17.972Z,39.30
2023-04-10T08:23:19.811Z,38.91
2023-04-10T08:26:09.242Z,38.48
2023-04-10T08:28:58.858Z,38.42
2023-04-10T08:31:47.572Z,38.44
2023-04-10T08:34:37.746Z,38.62
2023-04-10T08:37:30.871Z,38.31
2023-04-10T08:40:19.482Z,38.48
2023-04-10T08:43:08.180Z,38.53
2023-04-10T08:45:57.696Z,38.45
2023-04-10T08:48:49.218Z,38.26
2023-04-10T08:51:43.655Z,38.13
2023-04-10T08:54:35.278Z,38.12
2023-04-10T08:57:24.516Z,38.11
2023-04-10T09:00:22.899Z,38.04
2023-04-10T09:03:16.327Z,38.03
2023-04-10T09:06:05.864Z,38.13
2023-04-10T09:08:56.003Z,37.92
2023-04-10T09:12:03.636Z,37.99
2023-04-10T09:15:03.326Z,38.28
2023-04-10T09:17:59.478Z,38.15
2023-04-10T09:20:51.684Z,38.14
2023-04-10T09:23:44.696Z,38.11
2023-04-10T09:26:35.110Z,38.32
2023-04-10T09:29:23.949Z,38.21
2023-04-10T09:32:13.150Z,38.36
2023-04-10T09:35:01.816Z,38.20
2023-04-10T09:37:50.923Z,38.43
2023-04-10T09:40:39.660Z,38.74
2023-04-10T09:43:29.658Z,38.45
2023-04-10T09:46:28.784Z,38.29
2023-04-10T09:49:17.452Z,39.03
2023-04-10T09:52:19.786Z,39.15
2023-04-10T09:55:09.614Z,39.30
2023-04-10T09:57:59.433Z,39.13
2023-04-10T10:00:51.309Z,39.82
2023-04-10T10:03:40.703Z,39.73
2023-04-10T10:06:29.703Z,39.77
2023-04-10T10:09:18.320Z,39.34
2023-04-10T10:12:08.476Z,39.35
2023-04-10T10:15:02.960Z,39.71
2023-04-10T10:17:57.451Z,39.46
2023-04-10T10:20:47.285Z,39.15
2023-04-10T10:23:37.533Z,39.11
2023-04-10T10:26:26.138Z,38.77
2023-04-10T10:29:18.622Z,39.10
2023-04-10T10:32:08.678Z,38.99
2023-04-10T10:34:58.955Z,39.31
2023-04-10T10:37:48.496Z,39.16
2023-04-10T10:40:43.493Z,39.48
2023-04-10T10:43:43.287Z,39.23
2023-04-10T10:46:37.494Z,39.21
2023-04-10T10:49:53.493Z,39.35
2023-04-10T10:52:50.050Z,39.38
2023-04-10T10:55:39.136Z,39.65
2023-04-10T10:58:48.625Z,39.91
2023-04-10T11:01:37.643Z,39.90
2023-04-10T11:04:47.630Z,39.95
2023-04-10T11:08:10.687Z,39.76
2023-04-10T11:11:02.820Z,39.76
2023-04-10T11:14:18.894Z,40.61
2023-04-10T11:17:07.827Z,39.75
2023-04-10T11:20:01.004Z,39.42
2023-04-10T11:23:09.089Z,39.95
2023-04-10T11:25:59.601Z,35.27
2023-04-10T11:28:48.290Z,35.71
2023-04-10T11:31:37.272Z,33.39
2023-04-10T11:34:27.401Z,31.12
2023-04-10T11:37:24.449Z,31.98
2023-04-10T11:40:14.289Z,32.95
2023-04-10T11:43:15.356Z,32.25
2023-04-10T11:46:05.743Z,30.58
2023-04-10T11:48:55.606Z,30.83
2023-04-10T11:51:47.546Z,31.53
2023-04-10T11:54:37.712Z,30.85
2023-04-10T11:57:26.354Z,30.52
2023-04-10T12:00:25.375Z,30.41
2023-04-10T12:03:14.184Z,30.15
2023-04-10T12:06:02.945Z,30.47
2023-04-10T12:08:51.628Z,30.45
2023-04-10T12:11:40.816Z,30.84
2023-04-10T12:14:33.186Z,30.47
2023-04-10T12:17:23.373Z,29.21
2023-04-10T12:20:13.326Z,29.39
2023-04-10T12:23:03.191Z,30.89
2023-04-10T12:25:52.020Z,32.27
2023-04-10T12:28:42.089Z,32.39
2023-04-10T12:31:32.184Z,32.34
2023-04-10T12:34:22.297Z,31.55
2023-04-10T12:37:11.136Z,32.98
2023-04-10T12:40:08.148Z,33.68
2023-04-10T12:42:56.724Z,32.19
2023-04-10T12:45:45.868Z,32.25
2023-04-10T12:48:34.621Z,32.09
2023-04-10T12:51:45.847Z,32.11
2023-04-10T12:54:36.307Z,33.15
2023-04-10T12:57:28.820Z,32.64
2023-04-10T13:00:21.783Z,32.23
2023-04-10T13:03:10.795Z,31.18
2023-04-10T13:05:59.548Z,31.45
2023-04-10T13:08:52.858Z,30.39
2023-04-10T13:11:41.860Z,30.91
2023-04-10T13:14:30.560Z,30.03
2023-04-10T13:17:19.505Z,30.43
2023-04-10T13:20:09.674Z,30.02
2023-04-10T13:22:58.378Z,29.29
2023-04-10T13:25:48.555Z,30.79
2023-04-10T13:28:49.306Z,29.67
2023-04-10T13:31:38.011Z,29.01
2023-04-10T13:34:26.659Z,28.69
2023-04-10T13:37:15.344Z,29.05
2023-04-10T13:40:05.096Z,29.73
2023-04-10T13:42:55.128Z,30.55
2023-04-10T13:45:43.828Z,30.27
2023-04-10T13:48:40.113Z,30.36
2023-04-10T13:51:29.861Z,30.90
2023-04-10T13:54:18.548Z,30.28
2023-04-10T13:57:07.312Z,30.04
2023-04-10T13:59:57.367Z,29.85
2023-04-10T14:02:46.163Z,29.35
2023-04-10T14:05:34.900Z,30.08
2023-04-10T14:08:24.586Z,30.02
2023-04-10T14:11:13.213Z,30.94
2023-04-10T14:14:02.028Z,31.03
2023-04-10T14:16:52.251Z,31.52
2023-04-10T14:19:53.817Z,30.38
2023-04-10T14:22:43.187Z,29.19
2023-04-10T14:25:33.061Z,29.12
2023-04-10T14:28:21.950Z,30.28
2023-04-10T14:31:12.196Z,31.18
2023-04-10T14:34:02.651Z,31.59
2023-04-10T14:36:55.759Z,31.38
2023-04-10T14:39:44.308Z,31.42
2023-04-10T14:42:33.058Z,31.64
2023-04-10T14:45:21.770Z,31.27
2023-04-10T14:48:11.121Z,31.01
2023-04-10T14:51:01.404Z,31.85
2023-04-10T14:53:50.048Z,31.99
2023-04-10T14:56:38.898Z,31.54
2023-04-10T14:59:27.552Z,33.35
2023-04-10T15:02:16.973Z,34.48
2023-04-10T15:05:06.045Z,33.63
2023-04-10T15:07:56.209Z,33.50
2023-04-10T15:10:44.872Z,32.92
2023-04-10T15:13:33.531Z,32.92
2023-04-10T15:16:22.262Z,33.11
2023-04-10T15:19:10.894Z,32.60
2023-04-10T15:21:59.623Z,32.03
2023-04-10T15:24:50.926Z,32.38
2023-04-10T15:27:40.303Z,31.80
2023-04-10T15:30:29.264Z,31.95
2023-04-10T15:33:18.595Z,31.79
2023-04-10T15:36:09.886Z,31.66
2023-04-10T15:38:59.982Z,31.80
2023-04-10T15:41:50.509Z,32.10
2023-04-10T15:44:39.296Z,31.89
2023-04-10T15:47:28.538Z,33.21
2023-04-10T15:50:17.375Z,33.85
2023-04-10T15:53:07.077Z,33.82
2023-04-10T15:55:55.903Z,35.35
2023-04-10T15:58:46.045Z,35.76
2023-04-10T16:01:34.790Z,34.68
2023-04-10T16:04:23.741Z,33.73
2023-04-10T16:07:12.535Z,33.94
2023-04-10T16:10:01.305Z,33.47
2023-04-10T16:12:49.948Z,33.85
2023-04-10T16:15:40.478Z,33.92
2023-04-10T16:18:29.102Z,33.92
2023-04-10T16:21:17.738Z,33.97
2023-04-10T16:24:06.785Z,34.01
2023-04-10T16:26:56.480Z,34.02
2023-04-10T16:29:45.546Z,33.75
2023-04-10T16:32:35.852Z,33.74
2023-04-10T16:35:24.509Z,33.29
2023-04-10T16:38:13.146Z,33.30
2023-04-10T16:41:03.879Z,32.80
2023-04-10T16:43:52.570Z,32.84
2023-04-10T16:46:45.312Z,33.01
2023-04-10T16:49:35.424Z,32.16
2023-04-10T16:52:24.120Z,32.58
2023-04-10T16:55:13.380Z,32.30
2023-04-10T16:58:02.440Z,32.77
2023-04-10T17:00:57.601Z,33.11
2023-04-10T17:03:49.162Z,33.23
2023-04-10T17:06:39.597Z,33.00
2023-04-10T17:09:28.305Z,32.53
2023-04-10T17:12:16.992Z,32.05
2023-04-10T17:15:06.865Z,32.55
2023-04-10T17:17:55.515Z,32.62
2023-04-10T17:20:45.155Z,32.61
2023-04-10T17:23:37.383Z,32.46
2023-04-10T17:26:26.032Z,31.93
2023-04-10T17:29:14.765Z,32.11
2023-04-10T17:32:03.442Z,32.08
2023-04-10T17:34:52.287Z,32.01
2023-04-10T17:37:41.108Z,32.36
2023-04-10T17:40:31.103Z,32.19
2023-04-10T17:43:19.679Z,32.33
2023-04-10T17:46:08.726Z,32.42
2023-04-10T17:49:01.157Z,32.14
2023-04-10T17:51:50.496Z,31.81
2023-04-10T17:54:39.359Z,31.91
2023-04-10T17:57:29.635Z,31.71
2023-04-10T18:00:20.659Z,31.93
2023-04-10T18:03:09.598Z,31.53
2023-04-10T18:05:59.005Z,32.04
2023-04-10T18:09:06.392Z,32.24
2023-04-10T18:11:55.990Z,32.37
2023-04-10T18:14:48.048Z,32.55
2023-04-10T18:17:39.287Z,32.68
2023-04-10T18:20:28.230Z,31.92
2023-04-10T18:23:16.869Z,31.71
2023-04-10T18:26:05.552Z,32.05
2023-04-10T18:28:54.500Z,32.20
2023-04-10T18:31:45.103Z,31.91
2023-04-10T18:34:33.760Z,31.82
2023-04-10T18:37:22.588Z,31.78
2023-04-10T18:40:16.227Z,31.78
2023-04-10T18:43:05.662Z,32.02
2023-04-10T18:45:54.690Z,32.13
2023-04-10T18:48:46.829Z,31.73
2023-04-10T18:51:36.606Z,32.72
2023-04-10T18:54:27.377Z,32.46
2023-04-10T18:57:16.059Z,32.51
2023-04-10T19:00:06.854Z,32.78
2023-04-10T19:02:56.050Z,32.50
2023-04-10T19:05:46.445Z,32.54
2023-04-10T19:08:35.239Z,32.61
2023-04-10T19:11:24.083Z,32.49
2023-04-10T19:14:12.749Z,33.00
2023-04-10T19:17:05.925Z,32.75
2023-04-10T19:19:55.476Z,32.63
2023-04-10T19:22:45.489Z,32.47
2023-04-10T19:25:34.504Z,32.70
2023-04-10T19:28:25.592Z,33.24
2023-04-10T19:31:14.208Z,32.99
2023-04-10T19:34:10.449Z,32.67
2023-04-10T19:37:00.052Z,32.82
2023-04-10T19:39:50.105Z,32.93
2023-04-10T19:42:38.767Z,32.52
2023-04-10T19:45:29.272Z,32.67
2023-04-10T19:48:18.134Z,33.23
2023-04-10T19:51:07.529Z,33.21
2023-04-10T19:53:57.481Z,32.87
2023-04-10T19:56:48.204Z,33.11
2023-04-10T19:59:37.052Z,33.22
2023-04-10T20:02:25.879Z,33.57
2023-04-10T20:05:14.922Z,33.95
2023-04-10T20:08:03.555Z,33.58
2023-04-10T20:10:52.177Z,33.55
2023-04-10T20:13:42.273Z,34.27
2023-04-10T20:16:31.146Z,34.37
2023-04-10T20:19:19.749Z,34.20
2023-04-10T20:22:09.588Z,34.33
2023-04-10T20:24:58.481Z,34.68
2023-04-10T20:27:47.894Z,34.60
2023-04-10T20:30:39.524Z,34.77
2023-04-10T20:33:28.649Z,34.85
2023-04-10T20:36:17.930Z,34.98
2023-04-10T20:39:07.033Z,35.37
2023-04-10T20:41:57.379Z,35.48
2023-04-10T20:44:46.968Z,35.86
2023-04-10T20:47:37.865Z,36.18
2023-04-10T20:50:27.059Z,36.53
2023-04-10T20:53:16.336Z,36.56
2023-04-10T20:56:06.468Z,36.26
2023-04-10T20:58:56.004Z,36.58
2023-04-10T21:01:44.931Z,36.57
2023-04-10T21:04:35.041Z,36.90
2023-04-10T21:07:23.711Z,36.66
2023-04-10T21:10:12.296Z,36.99
2023-04-10T21:13:01.330Z,36.95
2023-04-10T21:15:50.491Z,37.00
2023-04-10T21:18:39.165Z,36.67
2023-04-10T21:21:30.320Z,36.59
2023-04-10T21:24:18.945Z,37.05
2023-04-10T21:27:08.084Z,36.87
2023-04-10T21:29:56.716Z,36.99
2023-04-10T21:32:45.352Z,36.94
2023-04-10T21:35:34.034Z,36.99
2023-04-10T21:38:24.589Z,37.26
2023-04-10T21:41:13.154Z,37.34
2023-04-10T21:44:01.682Z,36.98
2023-04-10T21:46:50.552Z,37.33
2023-04-10T21:49:39.241Z,37.17
2023-04-10T21:52:27.864Z,37.30
2023-04-10T21:55:18.826Z,37.20
2023-04-10T21:58:07.473Z,37.20
2023-04-10T22:00:56.129Z,36.92
2023-04-10T22:03:45.853Z,37.12
2023-04-10T22:06:35.003Z,37.26
2023-04-10T22:09:23.880Z,36.98
2023-04-10T22:12:14.164Z,37.09
2023-04-10T22:15:02.807Z,36.76
2023-04-10T22:17:51.422Z,37.07
2023-04-10T22:20:40.124Z,37.00
2023-04-10T22:23:28.761Z,37.06
2023-04-10T22:26:19.458Z,36.93
2023-04-10T22:29:09.447Z,37.27
2023-04-10T22:31:58.350Z,37.03
2023-04-10T22:34:46.969Z,37.29
2023-04-10T22:37:35.911Z,36.85
2023-04-10T22:40:24.653Z,36.92
2023-04-10T22:43:13.274Z,37.29
2023-04-10T22:46:03.412Z,37.25
2023-04-10T22:48:52.320Z,36.90
2023-04-10T22:51:41.130Z,37.26
2023-04-10T22:54:30.001Z,37.21
2023-04-10T22:57:18.739Z,37.07
2023-04-10T23:00:08.648Z,37.27
2023-04-10T23:02:58.780Z,37.09
2023-04-10T23:05:48.098Z,37.16
2023-04-10T23:08:37.382Z,37.11
2023-04-10T23:11:25.967Z,37.19
2023-04-10T23:14:14.712Z,37.43
2023-04-10T23:17:03.570Z,37.26
2023-04-10T23:19:53.503Z,37.33
2023-04-10T23:22:42.485Z,37.03
2023-04-10T23:25:31.125Z,36.65
2023-04-10T23:28:19.759Z,36.96
2023-04-10T23:31:10.017Z,36.82
2023-04-10T23:33:58.695Z,36.98
2023-04-10T23:36:48.640Z,36.55
2023-04-10T23:39:37.333Z,36.94
2023-04-10T23:42:26.463Z,37.25
2023-04-10T23:45:15.933Z,37.13
2023-04-10T23:48:04.955Z,37.35
2023-04-10T23:50:53.907Z,37.01
2023-04-10T23:53:44.640Z,37.18
2023-04-10T23:56:33.369Z,37.04
2023-04-10T23:59:22.356Z,37.14
